Nina — ICMG — position and weather

sailwx.info

Track history (hours):
 
Tides and Currents Weather Stations Pressure Air Temp Water Temp Dewpoint Dewpoint Depression Visibility Wind Speed Wind Dir Waves Ship Positions

Nina

Last reported at 2016-Jul-26 13:20 UTC. Time now 2016-Jul-29 17:52 UTC.
Position N 37°10' E 005°09'.

Length 180 m; draft 10.1 m.

Type: Ship (hazmat cat D). MMSI: 247239700.

Date/timePositionNaut miles runAvg speedWind from/ knotsBaromVisibWave heightAir tempDewpointWater temp
2016-Jul-26 13:20N 37°10' E 005°09'3813.7
2016-Jul-26 10:33N 37°09' E 004°21'1713.7
2016-Jul-26 09:17N 37°09' E 003°59'4114.5
2016-Jul-26 06:28N 37°04' E 003°08'1314.2
2016-Jul-26 05:31N 37°02' E 002°51'1313.7
2016-Jul-26 04:33N 36°59' E 002°35'1413.9
2016-Jul-26 03:32N 36°57' E 002°18'2813.9
2016-Jul-26 01:33N 36°53' E 001°43'1414.3
2016-Jul-26 00:33N 36°50' E 001°26'1414.1
2016-Jul-25 23:33N 36°48' E 001°08'1413.9
2016-Jul-25 22:33N 36°46' E 000°51'1413.7
2016-Jul-25 21:33N 36°44' E 000°34'1413.5
2016-Jul-25 20:33N 36°41' E 000°18'3113.7
2016-Jul-25 18:18N 36°37' W 000°20'23113.5
2016-Jul-25 01:12N 36°02' W 005°03'914.3
2016-Jul-25 00:33N 36°00' W 005°15'9012.7
2016-Jul-24 17:31N 36°04' W 007°05'10713.5
2016-Jul-24 09:33N 36°29' W 009°15'4013.0
2016-Jul-24 06:31N 37°02' W 009°42'1413.7
2016-Jul-24 05:28N 37°16' W 009°46'1213.6
2016-Jul-24 04:33N 37°29' W 009°50'1413.6
2016-Jul-24 03:33N 37°42' W 009°54'1413.6
2016-Jul-24 02:33N 37°55' W 009°58'1413.8
2016-Jul-24 01:33N 38°08' W 010°02'1414.2
2016-Jul-24 00:33N 38°22' W 010°06'1414.3
2016-Jul-23 23:33N 38°36' W 010°10'1414.3
2016-Jul-23 22:33N 38°51' W 010°11'63313.1
2016-Jul-21 22:05N 48°53' W 005°45'814.5
2016-Jul-21 21:33N 48°58' W 005°35'2912.1
2016-Jul-21 19:11N 49°13' W 004°58'812.0
2016-Jul-21 18:33N 49°17' W 004°48'1511.6
2016-Jul-21 17:17N 49°24' W 004°29'2712.6
2016-Jul-21 15:07N 49°38' W 003°53'1114.2
2016-Jul-21 14:22N 49°44' W 003°39'1214.5
2016-Jul-21 13:34N 49°50' W 003°23'1414.3
2016-Jul-21 12:33N 49°57' W 003°03'1413.5
2016-Jul-21 11:31N 50°02' W 002°43'7911.4
2016-Jul-21 04:33N 50°22' W 000°43'1514.8
2016-Jul-21 03:32N 50°26' W 000°20'1414.3
2016-Jul-21 02:34N 50°29' E 000°01'1413.6
2016-Jul-21 01:34N 50°33' E 000°22'2611.8
2016-Jul-20 23:24N 50°46' E 000°57'910.9
2016-Jul-20 22:33N 50°51' E 001°09'1211.8
2016-Jul-20 21:33N 50°59' E 001°23'1414.2
2016-Jul-20 20:34N 51°09' E 001°39'1514.6
2016-Jul-20 19:34N 51°21' E 001°52'1313.2
2016-Jul-20 18:33N 51°32' E 002°04'1212.3
2016-Jul-20 17:34N 51°41' E 002°18'1211.3
2016-Jul-20 16:31N 51°50' E 002°30'2210.2
2016-Jul-20 14:22N 52°11' E 002°39'7512.7
2016-Jul-20 08:27N 53°19' E 003°30'1213.4
2016-Jul-20 07:33N 53°31' E 003°36'1212.6
2016-Jul-20 06:34N 53°43' E 003°42'1412.5
2016-Jul-20 05:27N 53°52' E 003°60'1212.8
2016-Jul-20 04:29N 53°59' E 004°17'1312.6
2016-Jul-20 03:28N 54°09' E 004°31'1213.3
2016-Jul-20 02:33N 54°19' E 004°42'1313.4
2016-Jul-20 01:34N 54°31' E 004°53'5413.2
2016-Jul-19 21:26N 55°19' E 005°38'16412.6
2016-Jul-19 08:26N 57°31' E 008°34'1111.7
2016-Jul-19 07:30N 57°37' E 008°50'3411.6
2016-Jul-19 04:34N 57°56' E 009°44'1211.6
2016-Jul-19 03:33N 57°60' E 010°05'1212.4
2016-Jul-19 02:33N 57°56' E 010°27'1312.8
2016-Jul-19 01:33N 57°53' E 010°50'1212.0
2016-Jul-19 00:33N 57°45' E 011°08'1313.2
2016-Jul-18 23:33N 57°34' E 011°20'1313.2
2016-Jul-18 22:33N 57°22' E 011°31'1312.5
2016-Jul-18 21:33N 57°10' E 011°38'1212.5
2016-Jul-18 20:33N 56°58' E 011°45'1212.4
2016-Jul-18 19:34N 56°46' E 011°53'1211.5
2016-Jul-18 18:33N 56°38' E 011°39'2412.0
2016-Jul-18 16:32N 56°21' E 011°06'6011.7
2016-Jul-18 11:22N 55°21' E 011°02'1011.7
2016-Jul-18 10:33N 55°12' E 011°06'1212.2
2016-Jul-18 09:33N 54°60' E 011°01'1212.1
2016-Jul-18 08:33N 54°50' E 010°50'1010.1
2016-Jul-18 07:34N 54°39' E 010°51'1211.8
2016-Jul-18 06:33N 54°36' E 011°11'1211.9
2016-Jul-18 05:34N 54°31' E 011°29'1111.4
2016-Jul-18 04:33N 54°26' E 011°47'1211.7
2016-Jul-18 03:33N 54°26' E 012°07'1111.1
2016-Jul-18 02:33N 54°36' E 012°17'4511.3
2016-Jul-17 22:33N 54°52' E 013°30'1212.3
2016-Jul-17 21:33N 54°50' E 013°51'1312.2
2016-Jul-17 20:31N 54°42' E 014°08'1211.9
2016-Jul-17 19:29N 54°38' E 014°27'1112.2
2016-Jul-17 18:33N 54°40' E 014°47'1312.4
2016-Jul-17 17:29N 54°41' E 015°09'11212.1
2016-Jul-17 08:15N 55°09' E 018°17'912.6
2016-Jul-17 07:31N 55°12' E 018°32'1212.5
2016-Jul-17 06:31N 55°17' E 018°53'  
Track history (hours):
 
Tides and Currents Weather Stations Pressure Air Temp Water Temp Dewpoint Dewpoint Depression Visibility Wind Speed Wind Dir Waves Ship Positions

Nina

Last reported at 2016-Jul-26 13:20 UTC. Time now 2016-Jul-29 17:52 UTC.
Position N 37°10' E 005°09'.

Length 180 m; draft 10.1 m.

Type: Ship (hazmat cat D). MMSI: 247239700.

Date/timePositionNaut miles runAvg speedWind from/ knotsBaromVisibWave heightAir tempDewpointWater temp
2016-Jul-26 13:20N 37°10' E 005°09'3813.7
2016-Jul-26 10:33N 37°09' E 004°21'1713.7
2016-Jul-26 09:17N 37°09' E 003°59'4114.5
2016-Jul-26 06:28N 37°04' E 003°08'1314.2
2016-Jul-26 05:31N 37°02' E 002°51'1313.7
2016-Jul-26 04:33N 36°59' E 002°35'1413.9
2016-Jul-26 03:32N 36°57' E 002°18'2813.9
2016-Jul-26 01:33N 36°53' E 001°43'1414.3
2016-Jul-26 00:33N 36°50' E 001°26'1414.1
2016-Jul-25 23:33N 36°48' E 001°08'1413.9
2016-Jul-25 22:33N 36°46' E 000°51'1413.7
2016-Jul-25 21:33N 36°44' E 000°34'1413.5
2016-Jul-25 20:33N 36°41' E 000°18'3113.7
2016-Jul-25 18:18N 36°37' W 000°20'23113.5
2016-Jul-25 01:12N 36°02' W 005°03'914.3
2016-Jul-25 00:33N 36°00' W 005°15'9012.7
2016-Jul-24 17:31N 36°04' W 007°05'10713.5
2016-Jul-24 09:33N 36°29' W 009°15'4013.0
2016-Jul-24 06:31N 37°02' W 009°42'1413.7
2016-Jul-24 05:28N 37°16' W 009°46'1213.6
2016-Jul-24 04:33N 37°29' W 009°50'1413.6
2016-Jul-24 03:33N 37°42' W 009°54'1413.6
2016-Jul-24 02:33N 37°55' W 009°58'1413.8
2016-Jul-24 01:33N 38°08' W 010°02'1414.2
2016-Jul-24 00:33N 38°22' W 010°06'1414.3
2016-Jul-23 23:33N 38°36' W 010°10'1414.3
2016-Jul-23 22:33N 38°51' W 010°11'63313.1
2016-Jul-21 22:05N 48°53' W 005°45'814.5
2016-Jul-21 21:33N 48°58' W 005°35'2912.1
2016-Jul-21 19:11N 49°13' W 004°58'812.0
2016-Jul-21 18:33N 49°17' W 004°48'1511.6
2016-Jul-21 17:17N 49°24' W 004°29'2712.6
2016-Jul-21 15:07N 49°38' W 003°53'1114.2
2016-Jul-21 14:22N 49°44' W 003°39'1214.5
2016-Jul-21 13:34N 49°50' W 003°23'1414.3
2016-Jul-21 12:33N 49°57' W 003°03'1413.5
2016-Jul-21 11:31N 50°02' W 002°43'7911.4
2016-Jul-21 04:33N 50°22' W 000°43'1514.8
2016-Jul-21 03:32N 50°26' W 000°20'1414.3
2016-Jul-21 02:34N 50°29' E 000°01'1413.6
2016-Jul-21 01:34N 50°33' E 000°22'2611.8
2016-Jul-20 23:24N 50°46' E 000°57'910.9
2016-Jul-20 22:33N 50°51' E 001°09'1211.8
2016-Jul-20 21:33N 50°59' E 001°23'1414.2
2016-Jul-20 20:34N 51°09' E 001°39'1514.6
2016-Jul-20 19:34N 51°21' E 001°52'1313.2
2016-Jul-20 18:33N 51°32' E 002°04'1212.3
2016-Jul-20 17:34N 51°41' E 002°18'1211.3
2016-Jul-20 16:31N 51°50' E 002°30'2210.2
2016-Jul-20 14:22N 52°11' E 002°39'7512.7
2016-Jul-20 08:27N 53°19' E 003°30'1213.4
2016-Jul-20 07:33N 53°31' E 003°36'1212.6
2016-Jul-20 06:34N 53°43' E 003°42'1412.5
2016-Jul-20 05:27N 53°52' E 003°60'1212.8
2016-Jul-20 04:29N 53°59' E 004°17'1312.6
2016-Jul-20 03:28N 54°09' E 004°31'1213.3
2016-Jul-20 02:33N 54°19' E 004°42'1313.4
2016-Jul-20 01:34N 54°31' E 004°53'5413.2
2016-Jul-19 21:26N 55°19' E 005°38'16412.6
2016-Jul-19 08:26N 57°31' E 008°34'1111.7
2016-Jul-19 07:30N 57°37' E 008°50'3411.6
2016-Jul-19 04:34N 57°56' E 009°44'1211.6
2016-Jul-19 03:33N 57°60' E 010°05'1212.4
2016-Jul-19 02:33N 57°56' E 010°27'1312.8
2016-Jul-19 01:33N 57°53' E 010°50'1212.0
2016-Jul-19 00:33N 57°45' E 011°08'1313.2
2016-Jul-18 23:33N 57°34' E 011°20'1313.2
2016-Jul-18 22:33N 57°22' E 011°31'1312.5
2016-Jul-18 21:33N 57°10' E 011°38'1212.5
2016-Jul-18 20:33N 56°58' E 011°45'1212.4
2016-Jul-18 19:34N 56°46' E 011°53'1211.5
2016-Jul-18 18:33N 56°38' E 011°39'2412.0
2016-Jul-18 16:32N 56°21' E 011°06'6011.7
2016-Jul-18 11:22N 55°21' E 011°02'1011.7
2016-Jul-18 10:33N 55°12' E 011°06'1212.2
2016-Jul-18 09:33N 54°60' E 011°01'1212.1
2016-Jul-18 08:33N 54°50' E 010°50'1010.1
2016-Jul-18 07:34N 54°39' E 010°51'1211.8
2016-Jul-18 06:33N 54°36' E 011°11'1211.9
2016-Jul-18 05:34N 54°31' E 011°29'1111.4
2016-Jul-18 04:33N 54°26' E 011°47'1211.7
2016-Jul-18 03:33N 54°26' E 012°07'1111.1
2016-Jul-18 02:33N 54°36' E 012°17'4511.3
2016-Jul-17 22:33N 54°52' E 013°30'1212.3
2016-Jul-17 21:33N 54°50' E 013°51'1312.2
2016-Jul-17 20:31N 54°42' E 014°08'1211.9
2016-Jul-17 19:29N 54°38' E 014°27'1112.2
2016-Jul-17 18:33N 54°40' E 014°47'1312.4
2016-Jul-17 17:29N 54°41' E 015°09'11212.1
2016-Jul-17 08:15N 55°09' E 018°17'912.6
2016-Jul-17 07:31N 55°12' E 018°32'1212.5
2016-Jul-17 06:31N 55°17' E 018°53'  

Dump ship's entire track history